createdAt,value
2022-12-15T00:01:59.848Z,15.13
2022-12-15T00:04:44.696Z,14.10
2022-12-15T00:07:26.910Z,14.00
2022-12-15T00:10:09.108Z,13.93
2022-12-15T00:12:51.309Z,13.48
2022-12-15T00:15:33.663Z,14.60
2022-12-15T00:18:19.834Z,12.80
2022-12-15T00:21:04.619Z,13.65
2022-12-15T00:23:46.782Z,13.73
2022-12-15T00:26:28.999Z,13.60
2022-12-15T00:29:11.497Z,12.85
2022-12-15T00:31:53.813Z,13.02
2022-12-15T00:34:36.052Z,13.40
2022-12-15T00:37:20.894Z,13.25
2022-12-15T00:39:58.936Z,14.55
2022-12-15T00:42:30.456Z,13.60
2022-12-15T00:45:00.624Z,12.98
2022-12-15T00:47:27.897Z,13.63
2022-12-15T00:50:10.069Z,13.82
2022-12-15T00:52:54.944Z,13.35
2022-12-15T00:55:37.155Z,12.70
2022-12-15T00:58:19.372Z,13.32
2022-12-15T01:01:01.574Z,13.10
2022-12-15T01:03:43.923Z,12.90
2022-12-15T01:06:27.966Z,13.00
2022-12-15T01:09:13.469Z,14.57
2022-12-15T01:11:55.862Z,13.68
2022-12-15T01:14:38.094Z,14.30
2022-12-15T01:17:20.714Z,11.88
2022-12-15T01:20:02.920Z,11.80
2022-12-15T01:22:32.711Z,12.63
2022-12-15T01:25:05.061Z,13.10
2022-12-15T01:27:35.379Z,13.13
2022-12-15T01:30:05.214Z,14.25
2022-12-15T01:32:35.057Z,13.13
2022-12-15T01:35:04.914Z,13.85
2022-12-15T01:37:35.135Z,12.50
2022-12-15T01:40:21.563Z,14.02
2022-12-15T01:42:51.662Z,14.27
2022-12-15T01:45:49.932Z,14.45
2022-12-15T01:48:27.277Z,13.38
2022-12-15T01:51:04.096Z,14.38
2022-12-15T01:53:38.371Z,13.35
2022-12-15T01:56:12.307Z,14.60
2022-12-15T01:58:45.762Z,13.55
2022-12-15T02:01:15.545Z,14.07
2022-12-15T02:03:46.851Z,14.40
2022-12-15T02:06:18.085Z,13.40
2022-12-15T02:08:49.971Z,13.90
2022-12-15T02:11:46.308Z,14.38
2022-12-15T02:14:23.789Z,14.85
2022-12-15T02:17:07.594Z,13.65
2022-12-15T02:20:02.360Z,13.60
2022-12-15T02:22:44.329Z,15.65
2022-12-15T02:25:33.377Z,14.35
2022-12-15T02:28:11.154Z,13.43
2022-12-15T02:31:09.437Z,14.20
2022-12-15T02:33:47.717Z,13.90
2022-12-15T02:36:26.943Z,15.50
2022-12-15T02:38:56.800Z,15.00
2022-12-15T02:41:42.229Z,15.05
2022-12-15T02:44:15.920Z,14.38
2022-12-15T02:47:07.485Z,14.65
2022-12-15T02:49:49.884Z,16.75
2022-12-15T02:52:35.112Z,18.05
2022-12-15T02:55:18.479Z,18.20
2022-12-15T02:57:57.140Z,18.90
2022-12-15T03:00:27.399Z,17.00
2022-12-15T03:02:59.981Z,15.30
2022-12-15T03:05:29.897Z,14.93
2022-12-15T03:07:59.662Z,16.00
2022-12-15T03:10:29.659Z,15.15
2022-12-15T03:12:59.434Z,13.93
2022-12-15T03:15:34.889Z,13.10
2022-12-15T03:18:07.925Z,13.50
2022-12-15T03:20:38.868Z,11.82
2022-12-15T03:23:08.621Z,12.70
2022-12-15T03:25:38.363Z,13.63
2022-12-15T03:28:08.399Z,12.20
2022-12-15T03:30:38.317Z,13.00
2022-12-15T03:33:10.865Z,12.00
2022-12-15T03:35:40.633Z,13.27
2022-12-15T03:38:10.453Z,12.20
2022-12-15T03:40:40.197Z,12.30
2022-12-15T03:43:09.933Z,12.15
2022-12-15T03:45:39.746Z,11.73
2022-12-15T03:48:12.187Z,10.93
2022-12-15T03:50:41.933Z,11.75
2022-12-15T03:53:11.742Z,11.02
2022-12-15T03:55:41.523Z,11.57
2022-12-15T03:58:11.327Z,12.38
2022-12-15T04:00:41.595Z,11.55
2022-12-15T04:03:14.734Z,11.88
2022-12-15T04:05:44.578Z,11.27
2022-12-15T04:08:14.384Z,11.80
2022-12-15T04:10:44.144Z,11.35
2022-12-15T04:13:14.597Z,11.52
2022-12-15T04:15:44.377Z,12.15
2022-12-15T04:18:16.826Z,11.57
2022-12-15T04:20:44.071Z,11.80
2022-12-15T04:23:13.870Z,11.40
2022-12-15T04:25:56.085Z,12.23
2022-12-15T04:28:38.444Z,11.73
2022-12-15T04:31:23.618Z,12.82
2022-12-15T04:34:11.770Z,12.10
2022-12-15T04:36:55.595Z,12.27
2022-12-15T04:39:37.903Z,12.63
2022-12-15T04:42:20.659Z,11.32
2022-12-15T04:45:04.864Z,12.30
2022-12-15T04:47:47.098Z,12.02
2022-12-15T04:50:32.068Z,11.90
2022-12-15T04:53:22.624Z,12.25
2022-12-15T04:56:04.805Z,11.60
2022-12-15T04:58:47.002Z,11.57
2022-12-15T05:01:29.279Z,11.55
2022-12-15T05:04:11.579Z,11.52
2022-12-15T05:06:56.406Z,11.90
2022-12-15T05:09:38.621Z,12.25
2022-12-15T05:12:21.102Z,12.23
2022-12-15T05:15:03.355Z,11.57
2022-12-15T05:17:46.119Z,11.30
2022-12-15T05:20:28.396Z,11.82
2022-12-15T05:23:13.637Z,11.20
2022-12-15T05:25:55.939Z,11.02
2022-12-15T05:28:38.357Z,11.70
2022-12-15T05:31:21.955Z,11.90
2022-12-15T05:33:51.738Z,12.70
2022-12-15T05:36:21.532Z,12.27
2022-12-15T05:38:55.024Z,11.85
2022-12-15T05:41:25.025Z,11.88
2022-12-15T05:43:54.878Z,11.77
2022-12-15T05:46:24.900Z,12.60
2022-12-15T05:48:54.730Z,11.77
2022-12-15T05:51:24.478Z,11.60
2022-12-15T05:53:57.251Z,11.13
2022-12-15T05:56:28.551Z,10.77
2022-12-15T05:58:59.292Z,11.85
2022-12-15T06:01:31.046Z,11.48
2022-12-15T06:04:01.643Z,10.75
2022-12-15T06:06:35.256Z,11.07
2022-12-15T06:09:09.018Z,11.48
2022-12-15T06:11:42.139Z,11.65
2022-12-15T06:14:12.181Z,11.77
2022-12-15T06:16:50.046Z,12.18
2022-12-15T06:19:22.569Z,12.38
2022-12-15T06:21:56.169Z,11.85
2022-12-15T06:24:28.754Z,11.68
2022-12-15T06:26:59.415Z,12.07
2022-12-15T06:29:29.418Z,12.13
2022-12-15T06:31:59.299Z,11.95
2022-12-15T06:34:29.312Z,11.63
2022-12-15T06:37:00.134Z,12.75
2022-12-15T06:39:35.726Z,12.38
2022-12-15T06:42:05.663Z,12.10
2022-12-15T06:44:35.514Z,12.07
2022-12-15T06:47:10.287Z,12.73
2022-12-15T06:49:40.198Z,12.77
2022-12-15T06:52:11.107Z,11.70
2022-12-15T06:54:44.556Z,12.85
2022-12-15T06:57:18.164Z,12.73
2022-12-15T06:59:48.254Z,13.15
2022-12-15T07:02:26.890Z,12.35
2022-12-15T07:05:04.247Z,12.60
2022-12-15T07:07:34.141Z,16.17
2022-12-15T07:10:11.385Z,18.95
2022-12-15T07:12:41.182Z,20.15
2022-12-15T07:15:13.403Z,18.77
2022-12-15T07:17:43.581Z,18.63
2022-12-15T07:20:14.682Z,14.90
2022-12-15T07:22:46.498Z,14.73
2022-12-15T07:25:22.906Z,14.35
2022-12-15T07:27:53.775Z,13.25
2022-12-15T07:30:24.730Z,12.57
2022-12-15T07:32:54.609Z,12.75
2022-12-15T07:35:28.230Z,13.70
2022-12-15T07:37:59.129Z,12.23
2022-12-15T07:40:33.610Z,12.40
2022-12-15T07:43:04.402Z,12.38
2022-12-15T07:45:34.240Z,12.40
2022-12-15T07:48:04.105Z,12.93
2022-12-15T07:50:33.923Z,12.68
2022-12-15T07:53:03.739Z,13.00
2022-12-15T07:56:04.979Z,13.30
2022-12-15T07:58:26.124Z,14.02
2022-12-15T08:00:56.563Z,13.80
2022-12-15T08:03:26.668Z,13.40
2022-12-15T08:06:02.027Z,13.25
2022-12-15T08:08:35.870Z,13.60
2022-12-15T08:11:11.130Z,14.00
2022-12-15T08:16:33.364Z,13.35
2022-12-15T08:19:03.251Z,14.63
2022-12-15T08:21:33.915Z,14.68
2022-12-15T08:24:04.304Z,13.60
2022-12-15T08:26:37.930Z,13.90
2022-12-15T08:32:03.075Z,13.30
2022-12-15T08:34:33.183Z,20.30
2022-12-15T08:37:03.167Z,15.43
2022-12-15T08:39:33.029Z,14.60
2022-12-15T08:42:05.440Z,15.23
2022-12-15T08:44:35.405Z,14.52
2022-12-15T08:47:05.436Z,14.80
2022-12-15T08:49:35.263Z,14.18
2022-12-15T08:52:05.087Z,14.90
2022-12-15T08:54:35.175Z,14.95
2022-12-15T08:57:08.053Z,15.30
2022-12-15T08:59:37.926Z,15.27
2022-12-15T09:02:08.099Z,14.50
2022-12-15T09:04:40.923Z,15.25
2022-12-15T09:07:10.776Z,14.68
2022-12-15T09:09:41.513Z,14.73
2022-12-15T09:12:15.329Z,15.63
2022-12-15T09:14:45.216Z,15.18
2022-12-15T09:17:15.898Z,16.35
2022-12-15T09:19:45.851Z,15.60
2022-12-15T09:22:15.653Z,15.20
2022-12-15T09:24:45.445Z,14.60
2022-12-15T09:27:17.846Z,15.90
2022-12-15T09:29:47.656Z,14.68
2022-12-15T09:32:17.626Z,15.93
2022-12-15T09:34:47.569Z,16.70
2022-12-15T09:37:20.518Z,34.67
2022-12-15T09:39:50.540Z,16.70
2022-12-15T09:42:27.874Z,16.58
2022-12-15T09:45:04.808Z,14.95
2022-12-15T09:47:43.514Z,15.93
2022-12-15T09:50:15.640Z,15.95
2022-12-15T09:52:51.842Z,15.43
2022-12-15T09:55:25.475Z,15.95
2022-12-15T09:57:59.810Z,16.35
2022-12-15T10:00:35.900Z,16.67
2022-12-15T10:03:35.776Z,15.30
2022-12-15T10:06:17.185Z,15.20
2022-12-15T10:08:51.194Z,16.65
2022-12-15T10:11:28.991Z,16.27
2022-12-15T10:14:10.416Z,16.55
2022-12-15T10:16:53.542Z,16.50
2022-12-15T10:19:32.512Z,16.92
2022-12-15T10:22:02.825Z,16.77
2022-12-15T10:25:08.613Z,15.52
2022-12-15T10:27:44.198Z,17.55
2022-12-15T10:30:17.904Z,16.35
2022-12-15T10:32:53.691Z,15.75
2022-12-15T10:35:27.720Z,16.60
2022-12-15T10:38:01.675Z,16.10
2022-12-15T10:40:57.082Z,17.17
2022-12-15T10:43:31.209Z,16.70
2022-12-15T10:46:14.471Z,15.95
2022-12-15T10:48:48.567Z,16.50
2022-12-15T10:51:24.579Z,15.63
2022-12-15T10:53:56.723Z,17.58
2022-12-15T10:56:33.283Z,17.25
2022-12-15T10:59:06.325Z,17.33
2022-12-15T11:01:38.850Z,15.93
2022-12-15T11:04:28.428Z,15.75
2022-12-15T11:07:02.282Z,15.27
2022-12-15T11:09:36.857Z,15.05
2022-12-15T11:12:32.079Z,15.75
2022-12-15T11:15:01.979Z,15.70
2022-12-15T11:17:44.494Z,16.10
2022-12-15T11:20:23.530Z,16.83
2022-12-15T11:22:59.658Z,16.63
2022-12-15T11:25:38.039Z,16.83
2022-12-15T11:28:17.266Z,14.93
2022-12-15T11:30:52.132Z,15.57
2022-12-15T11:33:25.773Z,14.52
2022-12-15T11:36:10.054Z,15.65
2022-12-15T11:38:46.506Z,16.95
2022-12-15T11:41:31.072Z,16.05
2022-12-15T11:44:27.288Z,16.27
2022-12-15T11:47:10.160Z,15.93
2022-12-15T11:50:09.638Z,14.93
2022-12-15T11:52:53.117Z,14.82
2022-12-15T11:55:39.189Z,14.40
2022-12-15T11:58:48.632Z,14.70
2022-12-15T12:01:27.640Z,14.25
2022-12-15T12:04:08.046Z,14.60
2022-12-15T12:06:50.902Z,16.88
2022-12-15T12:09:33.119Z,15.63
2022-12-15T12:12:14.533Z,14.70
2022-12-15T12:15:00.643Z,15.07
2022-12-15T12:17:41.897Z,16.07
2022-12-15T12:20:19.456Z,15.88
2022-12-15T12:23:02.388Z,15.00
2022-12-15T12:25:37.827Z,14.95
2022-12-15T12:28:17.231Z,15.45
2022-12-15T12:30:50.432Z,14.95
2022-12-15T12:33:32.870Z,13.93
2022-12-15T12:36:07.354Z,15.13
2022-12-15T12:38:46.267Z,16.00
2022-12-15T12:41:30.135Z,15.00
2022-12-15T12:44:03.879Z,15.35
2022-12-15T12:46:39.631Z,14.75
2022-12-15T12:49:26.070Z,15.38
2022-12-15T12:51:59.605Z,15.03
2022-12-15T12:54:55.095Z,15.37
2022-12-15T12:57:50.121Z,15.38
2022-12-15T13:00:26.600Z,15.63
2022-12-15T13:03:17.918Z,15.95
2022-12-15T13:05:50.537Z,15.40
2022-12-15T13:08:53.607Z,15.32
2022-12-15T13:11:58.156Z,16.77
2022-12-15T13:14:38.460Z,17.07
2022-12-15T13:17:27.451Z,15.57
2022-12-15T13:20:18.679Z,16.60
2022-12-15T13:22:48.781Z,16.80
2022-12-15T13:25:38.136Z,16.40
2022-12-15T13:28:42.790Z,16.40
2022-12-15T13:31:49.765Z,18.17
2022-12-15T13:34:27.126Z,19.70
2022-12-15T13:37:05.545Z,21.30
2022-12-15T13:39:57.828Z,20.43
2022-12-15T13:42:56.266Z,18.60
2022-12-15T13:45:58.166Z,20.10
2022-12-15T13:48:34.744Z,17.40
2022-12-15T13:51:27.320Z,15.63
2022-12-15T13:54:02.147Z,15.13
2022-12-15T13:56:47.518Z,17.00
2022-12-15T13:59:29.843Z,16.73
2022-12-15T14:02:24.979Z,16.58
2022-12-15T14:05:21.119Z,15.93
2022-12-15T14:07:54.916Z,15.43
2022-12-15T14:10:28.199Z,15.40
2022-12-15T14:13:00.805Z,14.23
2022-12-15T14:15:33.787Z,14.90
2022-12-15T14:18:06.676Z,16.00
2022-12-15T14:20:43.346Z,15.13
2022-12-15T14:23:21.644Z,15.40
2022-12-15T14:26:07.234Z,14.40
2022-12-15T14:28:38.786Z,14.82
2022-12-15T14:31:14.139Z,15.60
2022-12-15T14:33:50.643Z,15.43
2022-12-15T14:36:23.482Z,13.33
2022-12-15T14:38:55.373Z,15.20
2022-12-15T14:41:27.830Z,14.53
2022-12-15T14:46:54.966Z,13.77
2022-12-15T14:49:31.137Z,15.27
2022-12-15T14:52:05.129Z,13.90
2022-12-15T14:54:38.341Z,13.83
2022-12-15T14:57:17.574Z,14.57
2022-12-15T14:59:51.343Z,14.77
2022-12-15T15:02:26.887Z,15.57
2022-12-15T15:03:06.023Z,15.00
2022-12-15T15:05:05.413Z,14.03
2022-12-15T15:07:35.965Z,14.50
2022-12-15T15:10:06.652Z,13.50
2022-12-15T15:12:47.217Z,14.20
2022-12-15T15:15:19.232Z,14.65
2022-12-15T15:17:53.798Z,14.27
2022-12-15T15:20:30.197Z,13.23
2022-12-15T15:23:16.001Z,14.53
2022-12-15T15:25:53.971Z,13.60
2022-12-15T15:28:28.064Z,13.33
2022-12-15T15:31:05.281Z,14.57
2022-12-15T15:33:35.484Z,14.03
2022-12-15T15:36:14.018Z,15.17
2022-12-15T15:38:46.772Z,14.10
2022-12-15T15:41:20.087Z,14.10
2022-12-15T15:43:50.023Z,13.43
2022-12-15T15:46:25.588Z,14.00
2022-12-15T15:48:58.639Z,12.88
2022-12-15T15:51:33.202Z,14.98
2022-12-15T15:54:05.605Z,14.67
2022-12-15T15:56:35.415Z,14.67
2022-12-15T15:59:13.541Z,14.13
2022-12-15T16:01:43.549Z,15.10
2022-12-15T16:04:13.467Z,15.03
2022-12-15T16:06:47.829Z,15.05
2022-12-15T16:09:18.998Z,15.30
2022-12-15T16:11:49.463Z,14.02
2022-12-15T16:14:20.390Z,14.73
2022-12-15T16:16:53.972Z,14.55
2022-12-15T16:19:23.989Z,14.30
2022-12-15T16:21:56.369Z,14.38
2022-12-15T16:24:26.135Z,13.00
2022-12-15T16:26:55.881Z,14.50
2022-12-15T16:29:25.973Z,14.97
2022-12-15T16:31:56.129Z,15.10
2022-12-15T16:34:25.997Z,13.90
2022-12-15T16:36:58.558Z,14.10
2022-12-15T16:39:31.915Z,14.20
2022-12-15T16:42:02.993Z,14.37
2022-12-15T16:44:33.198Z,14.70
2022-12-15T16:47:04.039Z,14.57
2022-12-15T16:49:39.853Z,14.10
2022-12-15T16:52:22.769Z,13.90
2022-12-15T16:54:53.742Z,14.37
2022-12-15T16:57:23.535Z,16.50
2022-12-15T16:59:57.113Z,17.00
2022-12-15T17:02:30.335Z,16.60
2022-12-15T17:05:00.214Z,15.63
2022-12-15T17:07:33.557Z,15.88
2022-12-15T17:10:08.370Z,15.33
2022-12-15T17:12:38.202Z,16.48
2022-12-15T17:15:21.126Z,18.08
2022-12-15T17:17:52.694Z,17.50
2022-12-15T17:20:30.976Z,17.48
2022-12-15T17:23:10.491Z,15.15
2022-12-15T17:28:37.849Z,14.30
2022-12-15T17:31:07.951Z,14.73
2022-12-15T17:33:37.978Z,13.52
2022-12-15T17:36:18.987Z,14.45
2022-12-15T17:38:55.921Z,13.95
2022-12-15T17:41:58.207Z,14.55
2022-12-15T17:44:39.290Z,15.55
2022-12-15T17:47:10.652Z,14.30
2022-12-15T17:49:41.898Z,14.95
2022-12-15T17:52:24.273Z,14.32
2022-12-15T17:54:59.259Z,13.93
2022-12-15T17:57:31.622Z,13.95
2022-12-15T18:00:02.030Z,14.60
2022-12-15T18:02:35.271Z,14.77
2022-12-15T18:05:07.539Z,13.90
2022-12-15T18:07:37.671Z,14.57
2022-12-15T18:10:24.051Z,13.40
2022-12-15T18:12:54.009Z,14.32
2022-12-15T18:15:25.565Z,18.98
2022-12-15T18:17:58.134Z,20.17
2022-12-15T18:20:34.921Z,22.98
2022-12-15T18:23:04.822Z,22.70
2022-12-15T18:25:37.150Z,24.95
2022-12-15T18:28:20.036Z,21.33
2022-12-15T18:30:52.252Z,18.73
2022-12-15T18:33:22.336Z,16.27
2022-12-15T18:35:54.151Z,15.90
2022-12-15T18:38:26.300Z,15.15
2022-12-15T18:41:02.188Z,13.02
2022-12-15T18:43:34.471Z,15.07
2022-12-15T18:46:05.419Z,14.68
2022-12-15T18:48:37.706Z,14.35
2022-12-15T18:51:18.029Z,14.13
2022-12-15T18:53:50.500Z,13.68
2022-12-15T18:56:25.243Z,12.73
2022-12-15T18:58:56.073Z,14.80
2022-12-15T19:01:26.008Z,13.57
2022-12-15T19:03:56.987Z,14.05
2022-12-15T19:06:35.042Z,14.43
2022-12-15T19:09:05.862Z,13.77
2022-12-15T19:11:38.209Z,13.55
2022-12-15T19:14:38.011Z,13.45
2022-12-15T19:17:26.273Z,13.80
2022-12-15T19:20:09.437Z,13.13
2022-12-15T19:22:41.234Z,13.27
2022-12-15T19:25:15.286Z,12.43
2022-12-15T19:27:50.063Z,13.00
2022-12-15T19:30:22.189Z,12.70
2022-12-15T19:32:52.734Z,13.57
2022-12-15T19:35:30.072Z,12.07
2022-12-15T19:38:03.962Z,12.15
2022-12-15T19:40:35.917Z,11.90
2022-12-15T19:43:08.432Z,12.68
2022-12-15T19:45:39.287Z,12.25
2022-12-15T19:48:10.122Z,12.73
2022-12-15T19:50:40.745Z,12.70
2022-12-15T19:53:17.556Z,16.88
2022-12-15T19:55:47.529Z,17.33
2022-12-15T19:58:30.961Z,16.42
2022-12-15T20:01:03.267Z,15.05
2022-12-15T20:03:34.122Z,13.50
2022-12-15T20:06:05.518Z,13.65
2022-12-15T20:08:38.295Z,16.67
2022-12-15T20:11:16.909Z,18.25
2022-12-15T20:13:51.058Z,17.77
2022-12-15T20:16:22.980Z,20.88
2022-12-15T20:18:56.259Z,21.08
2022-12-15T20:21:34.035Z,19.63
2022-12-15T20:24:09.402Z,19.60
2022-12-15T20:26:42.091Z,19.07
2022-12-15T20:29:27.250Z,17.30
2022-12-15T20:31:59.067Z,19.70
2022-12-15T20:34:29.874Z,20.08
2022-12-15T20:37:00.945Z,19.55
2022-12-15T20:39:32.835Z,19.55
2022-12-15T20:42:02.667Z,20.42
2022-12-15T20:44:36.055Z,19.92
2022-12-15T20:47:06.852Z,23.98
2022-12-15T20:49:37.704Z,21.75
2022-12-15T20:52:08.525Z,22.15
2022-12-15T20:54:39.403Z,22.70
2022-12-15T20:57:09.226Z,23.10
2022-12-15T20:59:42.635Z,21.75
2022-12-15T21:02:21.393Z,20.33
2022-12-15T21:04:53.422Z,23.38
2022-12-15T21:07:24.139Z,19.45
2022-12-15T21:09:56.098Z,21.13
2022-12-15T21:12:28.187Z,22.35
2022-12-15T21:15:01.570Z,21.50
2022-12-15T21:17:34.327Z,22.80
2022-12-15T21:20:10.029Z,22.73
2022-12-15T21:22:41.000Z,20.92
2022-12-15T21:25:22.766Z,21.60
2022-12-15T21:27:53.486Z,21.30
2022-12-15T21:30:26.326Z,21.17
2022-12-15T21:32:56.071Z,20.25
2022-12-15T21:38:31.581Z,20.55
2022-12-15T21:41:04.761Z,20.65
2022-12-15T21:43:38.067Z,21.00
2022-12-15T21:46:17.479Z,15.13
2022-12-15T21:49:00.146Z,20.17
2022-12-15T21:51:32.990Z,20.00
2022-12-15T21:54:03.054Z,20.42
2022-12-15T21:56:32.843Z,19.55
2022-12-15T21:59:03.630Z,20.52
2022-12-15T22:01:37.137Z,22.15
2022-12-15T22:04:18.039Z,22.48
2022-12-15T22:06:50.431Z,21.60
2022-12-15T22:09:22.897Z,20.67
2022-12-15T22:11:55.707Z,20.90
2022-12-15T22:14:28.511Z,20.67
2022-12-15T22:17:02.966Z,19.85
2022-12-15T22:19:32.721Z,20.23
2022-12-15T22:22:02.458Z,21.02
2022-12-15T22:24:32.165Z,21.15
2022-12-15T22:27:02.914Z,19.77
2022-12-15T22:29:35.502Z,19.55
2022-12-15T22:32:14.317Z,20.55
2022-12-15T22:34:44.548Z,19.90
2022-12-15T22:37:15.835Z,19.73
2022-12-15T22:39:45.679Z,20.45
2022-12-15T22:42:19.131Z,20.90
2022-12-15T22:44:51.068Z,19.13
2022-12-15T22:47:24.107Z,18.80
2022-12-15T22:49:55.005Z,22.10
2022-12-15T22:52:26.097Z,20.65
2022-12-15T22:54:58.344Z,20.05
2022-12-15T22:57:30.836Z,20.25
2022-12-15T23:00:07.449Z,19.67
2022-12-15T23:02:44.342Z,20.52
2022-12-15T23:05:19.423Z,21.02
2022-12-15T23:07:49.997Z,19.95
2022-12-15T23:10:35.926Z,21.90
2022-12-15T23:13:05.805Z,21.05
2022-12-15T23:15:48.403Z,21.10
2022-12-15T23:18:21.839Z,22.02
2022-12-15T23:20:54.025Z,21.65
2022-12-15T23:23:25.967Z,21.58
2022-12-15T23:25:57.697Z,21.23
2022-12-15T23:28:27.551Z,21.38
2022-12-15T23:30:58.211Z,22.50
2022-12-15T23:33:32.896Z,21.83
2022-12-15T23:36:05.243Z,22.15
2022-12-15T23:38:35.114Z,21.48
2022-12-15T23:41:04.958Z,21.77
2022-12-15T23:43:37.820Z,21.23
2022-12-15T23:46:09.679Z,22.55
2022-12-15T23:48:45.659Z,21.90
2022-12-15T23:51:18.442Z,24.48
2022-12-15T23:53:50.455Z,23.85
2022-12-15T23:56:24.027Z,22.77
2022-12-15T23:58:57.740Z,23.65
